createdAt,value
2022-09-22T00:00:16.699Z,98.3
2022-09-22T00:01:17.262Z,98.3
2022-09-22T00:02:16.828Z,98.4
2022-09-22T00:03:17.278Z,98.5
2022-09-22T00:04:16.731Z,98.5
2022-09-22T00:05:17.219Z,98.5
2022-09-22T00:06:16.700Z,98.5
2022-09-22T00:07:17.144Z,98.7
2022-09-22T00:08:16.613Z,98.7
2022-09-22T00:09:17.080Z,98.7
2022-09-22T00:10:16.564Z,98.7
2022-09-22T00:11:17.068Z,98.7
2022-09-22T00:12:17.397Z,98.7
2022-09-22T00:13:16.809Z,98.7
2022-09-22T00:14:17.245Z,98.7
2022-09-22T00:15:16.696Z,98.8
2022-09-22T00:16:17.224Z,98.8
2022-09-22T00:17:16.685Z,98.8
2022-09-22T00:18:17.140Z,98.8
2022-09-22T00:19:16.628Z,98.7
2022-09-22T00:20:17.110Z,98.7
2022-09-22T00:21:16.579Z,98.6
2022-09-22T00:22:17.431Z,98.5
2022-09-22T00:23:16.907Z,98.5
2022-09-22T00:24:17.368Z,98.5
2022-09-22T00:25:16.806Z,98.5
2022-09-22T00:26:17.296Z,98.4
2022-09-22T00:27:16.714Z,98.3
2022-09-22T00:28:17.134Z,98.3
2022-09-22T00:29:16.574Z,98.3
2022-09-22T00:30:17.009Z,98.3
2022-09-22T00:31:16.555Z,98.3
2022-09-22T00:32:17.222Z,98.3
2022-09-22T00:33:16.677Z,98.3
2022-09-22T00:34:17.132Z,98.3
2022-09-22T00:35:16.599Z,98.2
2022-09-22T00:36:17.079Z,98.2
2022-09-22T00:37:16.554Z,98.2
2022-09-22T00:38:17.010Z,98.2
2022-09-22T00:39:16.445Z,98.2
2022-09-22T00:40:16.971Z,98.3
2022-09-22T00:41:16.410Z,98.3
2022-09-22T00:42:17.283Z,98.3
2022-09-22T00:43:16.727Z,98.2
2022-09-22T00:44:17.162Z,98.2
2022-09-22T00:45:16.613Z,98.2
2022-09-22T00:46:17.151Z,98.2
2022-09-22T00:47:16.655Z,98.2
2022-09-22T00:48:17.133Z,98.3
2022-09-22T00:49:16.577Z,98.3
2022-09-22T00:50:17.026Z,98.2
2022-09-22T00:51:16.478Z,98.2
2022-09-22T00:52:17.019Z,98.2
2022-09-22T00:53:16.481Z,98.3
2022-09-22T00:54:16.960Z,98.3
2022-09-22T00:55:17.407Z,98.3
2022-09-22T00:56:16.860Z,98.2
2022-09-22T00:57:17.325Z,98.3
2022-09-22T00:58:16.744Z,98.3
2022-09-22T00:59:17.199Z,98.3
2022-09-22T01:00:16.890Z,98.4
2022-09-22T01:01:17.439Z,98.3
2022-09-22T01:02:16.737Z,98.3
2022-09-22T01:03:17.262Z,98.4
2022-09-22T01:04:16.701Z,98.5
2022-09-22T01:05:17.166Z,98.5
2022-09-22T01:06:16.637Z,98.5
2022-09-22T01:07:17.089Z,98.5
2022-09-22T01:08:16.544Z,98.5
2022-09-22T01:09:16.980Z,98.7
2022-09-22T01:10:16.419Z,98.7
2022-09-22T01:11:16.845Z,98.7
2022-09-22T01:12:17.373Z,98.7
2022-09-22T01:13:16.803Z,98.7
2022-09-22T01:14:17.239Z,98.7
2022-09-22T01:15:16.675Z,98.7
2022-09-22T01:16:17.418Z,98.7
2022-09-22T01:17:16.922Z,98.6
2022-09-22T01:18:17.404Z,98.5
2022-09-22T01:19:16.866Z,98.5
2022-09-22T01:20:17.367Z,98.5
2022-09-22T01:21:16.839Z,98.5
2022-09-22T01:22:17.388Z,98.5
2022-09-22T01:23:16.834Z,98.5
2022-09-22T01:24:17.298Z,98.5
2022-09-22T01:25:16.720Z,98.5
2022-09-22T01:26:17.189Z,98.5
2022-09-22T01:27:16.638Z,98.5
2022-09-22T01:28:17.076Z,98.5
2022-09-22T01:29:16.509Z,98.5
2022-09-22T01:30:16.982Z,98.4
2022-09-22T01:31:16.550Z,98.3
2022-09-22T01:32:17.049Z,98.3
2022-09-22T01:33:16.485Z,98.3
2022-09-22T01:34:16.939Z,98.3
2022-09-22T01:35:17.686Z,98.3
2022-09-22T01:36:17.148Z,98.3
2022-09-22T01:37:16.612Z,98.3
2022-09-22T01:38:17.027Z,98.3
2022-09-22T01:39:16.464Z,98.3
2022-09-22T01:40:17.032Z,98.5
2022-09-22T01:41:16.480Z,98.5
2022-09-22T01:42:16.923Z,98.5
2022-09-22T01:43:17.378Z,98.5
2022-09-22T01:44:16.807Z,98.5
2022-09-22T01:45:17.271Z,98.3
2022-09-22T01:46:16.842Z,98.2
2022-09-22T01:47:17.322Z,98.2
2022-09-22T01:48:16.778Z,98.2
2022-09-22T01:49:17.256Z,98.2
2022-09-22T01:50:16.716Z,98.2
2022-09-22T01:51:17.197Z,98.2
2022-09-22T01:52:16.652Z,98.2
2022-09-22T01:53:17.079Z,98.2
2022-09-22T01:54:16.495Z,98.2
2022-09-22T01:55:16.914Z,98.2
2022-09-22T01:56:17.354Z,98.2
2022-09-22T01:57:16.784Z,98.2
2022-09-22T01:58:17.221Z,98.3
2022-09-22T01:59:16.680Z,98.3
2022-09-22T02:00:17.168Z,98.2
2022-09-22T02:01:16.785Z,98.2
2022-09-22T02:02:17.173Z,98.2
2022-09-22T02:03:16.713Z,98.1
2022-09-22T02:04:17.181Z,98.1
2022-09-22T02:05:16.654Z,98.1
2022-09-22T02:06:17.103Z,98.2
2022-09-22T02:07:16.528Z,98.2
2022-09-22T02:08:16.963Z,98.1
2022-09-22T02:09:17.401Z,98.1
2022-09-22T02:10:16.818Z,98.0
2022-09-22T02:11:17.259Z,98.0
2022-09-22T02:12:17.114Z,98.1
2022-09-22T02:13:16.565Z,98.2
2022-09-22T02:14:17.067Z,98.2
2022-09-22T02:15:16.547Z,98.0
2022-09-22T02:16:17.072Z,98.0
2022-09-22T02:17:16.572Z,98.0
2022-09-22T02:18:17.067Z,98.0
2022-09-22T02:19:16.556Z,98.0
2022-09-22T02:20:17.063Z,98.0
2022-09-22T02:21:16.529Z,98.0
2022-09-22T02:22:16.897Z,98.0
2022-09-22T02:23:17.358Z,98.0
2022-09-22T02:24:16.778Z,98.0
2022-09-22T02:25:17.199Z,98.0
2022-09-22T02:26:16.632Z,98.0
2022-09-22T02:27:17.060Z,98.0
2022-09-22T02:28:16.474Z,98.0
2022-09-22T02:29:16.933Z,98.0
2022-09-22T02:30:17.424Z,98.2
2022-09-22T02:31:21.103Z,98.1
2022-09-22T02:32:17.109Z,98.1
2022-09-22T02:33:16.571Z,98.1
2022-09-22T02:34:17.027Z,98.1
2022-09-22T02:35:16.516Z,98.1
2022-09-22T02:36:16.958Z,98.0
2022-09-22T02:37:17.382Z,98.0
2022-09-22T02:38:16.802Z,98.0
2022-09-22T02:39:17.221Z,98.0
2022-09-22T02:40:17.074Z,98.0
2022-09-22T02:41:16.540Z,98.0
2022-09-22T02:42:16.587Z,98.0
2022-09-22T02:43:17.016Z,98.0
2022-09-22T02:44:16.468Z,98.0
2022-09-22T02:45:16.941Z,98.0
2022-09-22T02:46:17.520Z,98.0
2022-09-22T02:47:17.004Z,98.0
2022-09-22T02:48:16.447Z,98.0
2022-09-22T02:49:16.737Z,98.0
2022-09-22T02:50:17.183Z,98.0
2022-09-22T02:51:16.595Z,98.0
2022-09-22T02:52:16.581Z,98.2
2022-09-22T02:53:16.992Z,98.2
2022-09-22T02:54:16.423Z,98.2
2022-09-22T02:55:16.873Z,98.2
2022-09-22T02:56:17.291Z,98.2
2022-09-22T02:57:16.724Z,98.3
2022-09-22T02:58:17.187Z,98.3
2022-09-22T02:59:16.671Z,98.3
2022-09-22T03:00:17.160Z,98.5
2022-09-22T03:01:16.690Z,98.4
2022-09-22T03:02:17.132Z,98.4
2022-09-22T03:03:16.578Z,98.4
2022-09-22T03:04:17.044Z,98.5
2022-09-22T03:05:16.800Z,98.5
2022-09-22T03:06:17.247Z,98.5
2022-09-22T03:07:16.679Z,98.5
2022-09-22T03:08:17.111Z,98.5
2022-09-22T03:09:16.538Z,98.6
2022-09-22T03:10:16.959Z,98.6
2022-09-22T03:11:17.377Z,98.6
2022-09-22T03:12:17.392Z,98.5
2022-09-22T03:13:17.867Z,98.4
2022-09-22T03:14:17.361Z,98.3
2022-09-22T03:15:16.866Z,98.3
2022-09-22T03:16:17.494Z,98.2
2022-09-22T03:17:17.012Z,98.2
2022-09-22T03:18:16.497Z,98.2
2022-09-22T03:19:16.979Z,98.1
2022-09-22T03:20:16.425Z,98.1
2022-09-22T03:21:16.880Z,98.0
2022-09-22T03:22:17.278Z,98.0
2022-09-22T03:23:16.697Z,98.0
2022-09-22T03:24:17.133Z,98.0
2022-09-22T03:25:16.571Z,98.0
2022-09-22T03:26:17.022Z,98.0
2022-09-22T03:27:16.511Z,98.0
2022-09-22T03:28:16.996Z,98.0
2022-09-22T03:29:16.447Z,98.0
2022-09-22T03:30:16.933Z,98.0
2022-09-22T03:31:17.508Z,98.0
2022-09-22T03:32:16.809Z,98.0
2022-09-22T03:33:17.273Z,97.9
2022-09-22T03:34:16.743Z,98.0
2022-09-22T03:35:17.159Z,98.0
2022-09-22T03:36:16.605Z,97.9
2022-09-22T03:37:17.064Z,98.0
2022-09-22T03:38:16.476Z,98.0
2022-09-22T03:39:16.932Z,98.0
2022-09-22T03:40:17.506Z,98.0
2022-09-22T03:41:16.948Z,98.0
2022-09-22T03:42:17.097Z,98.0
2022-09-22T03:43:17.005Z,98.0
2022-09-22T03:44:16.455Z,98.1
2022-09-22T03:45:16.905Z,98.1
2022-09-22T03:46:17.523Z,98.2
2022-09-22T03:47:17.036Z,98.2
2022-09-22T03:48:16.492Z,98.2
2022-09-22T03:49:16.943Z,98.2
2022-09-22T03:50:17.389Z,98.2
2022-09-22T03:51:16.813Z,98.2
2022-09-22T03:52:17.256Z,98.3
2022-09-22T03:53:16.679Z,98.3
2022-09-22T03:54:17.123Z,98.4
2022-09-22T03:55:16.577Z,98.4
2022-09-22T03:56:17.037Z,98.5
2022-09-22T03:57:16.485Z,98.7
2022-09-22T03:58:16.950Z,98.7
2022-09-22T03:59:17.393Z,98.7
2022-09-22T04:00:16.855Z,98.8
2022-09-22T04:01:17.466Z,98.8
2022-09-22T04:02:17.072Z,98.8
2022-09-22T04:03:16.574Z,98.8
2022-09-22T04:04:16.989Z,98.8
2022-09-22T04:05:16.424Z,98.8
2022-09-22T04:06:16.853Z,98.8
2022-09-22T04:07:17.291Z,98.7
2022-09-22T04:08:16.708Z,98.7
2022-09-22T04:09:17.537Z,98.7
2022-09-22T04:10:16.963Z,98.6
2022-09-22T04:11:17.427Z,98.5
2022-09-22T04:12:17.109Z,98.5
2022-09-22T04:13:16.571Z,98.5
2022-09-22T04:14:17.059Z,98.5
2022-09-22T04:15:16.538Z,98.5
2022-09-22T04:16:17.096Z,98.5
2022-09-22T04:17:16.570Z,98.5
2022-09-22T04:18:17.019Z,98.5
2022-09-22T04:19:16.469Z,98.5
2022-09-22T04:20:16.900Z,98.5
2022-09-22T04:21:17.338Z,98.5
2022-09-22T04:22:17.392Z,98.5
2022-09-22T04:23:16.823Z,98.5
2022-09-22T04:24:17.253Z,98.5
2022-09-22T04:25:16.681Z,98.5
2022-09-22T04:26:17.135Z,98.5
2022-09-22T04:27:21.460Z,98.5
2022-09-22T04:28:16.986Z,98.4
2022-09-22T04:29:16.456Z,98.3
2022-09-22T04:30:16.955Z,98.3
2022-09-22T04:31:17.569Z,98.3
2022-09-22T04:32:17.010Z,98.3
2022-09-22T04:33:16.457Z,98.4
2022-09-22T04:34:16.885Z,98.4
2022-09-22T04:35:17.317Z,98.4
2022-09-22T04:36:16.737Z,98.4
2022-09-22T04:37:17.153Z,98.4
2022-09-22T04:38:16.578Z,98.4
2022-09-22T04:39:23.765Z,98.4
2022-09-22T04:40:17.525Z,98.3
2022-09-22T04:41:17.032Z,98.3
2022-09-22T04:42:17.361Z,98.3
2022-09-22T04:43:16.854Z,98.3
2022-09-22T04:44:17.346Z,98.4
2022-09-22T04:45:16.827Z,98.5
2022-09-22T04:46:17.458Z,98.5
2022-09-22T04:47:17.013Z,98.6
2022-09-22T04:48:16.432Z,98.7
2022-09-22T04:49:16.898Z,98.8
2022-09-22T04:50:17.466Z,98.9
2022-09-22T04:51:16.882Z,99.0
2022-09-22T04:52:16.471Z,99.0
2022-09-22T04:53:16.991Z,99.2
2022-09-22T04:54:16.443Z,99.2
2022-09-22T04:55:16.928Z,99.3
2022-09-22T04:56:17.417Z,99.3
2022-09-22T04:57:20.751Z,99.2
2022-09-22T04:58:17.246Z,99.2
2022-09-22T04:59:16.735Z,99.2
2022-09-22T05:00:17.200Z,99.2
2022-09-22T05:01:16.755Z,99.2
2022-09-22T05:02:17.184Z,99.2
2022-09-22T05:03:22.319Z,99.3
2022-09-22T05:04:16.884Z,99.3
2022-09-22T05:05:17.345Z,99.3
2022-09-22T05:06:16.760Z,99.4
2022-09-22T05:07:17.199Z,99.5
2022-09-22T05:08:16.665Z,99.5
2022-09-22T05:09:17.127Z,99.5
2022-09-22T05:10:16.874Z,99.4
2022-09-22T05:11:17.336Z,99.4
2022-09-22T05:12:16.570Z,99.4
2022-09-22T05:13:17.022Z,99.3
2022-09-22T05:14:16.460Z,99.4
2022-09-22T05:15:16.936Z,99.4
2022-09-22T05:16:17.439Z,99.5
2022-09-22T05:17:16.921Z,99.5
2022-09-22T05:18:17.363Z,99.5
2022-09-22T05:19:16.775Z,99.5
2022-09-22T05:20:17.231Z,99.5
2022-09-22T05:21:16.653Z,99.5
2022-09-22T05:22:16.730Z,99.5
2022-09-22T05:23:17.147Z,99.5
2022-09-22T05:24:16.594Z,99.5
2022-09-22T05:25:17.049Z,99.5
2022-09-22T05:26:16.490Z,99.5
2022-09-22T05:27:16.935Z,99.5
2022-09-22T05:28:17.389Z,99.5
2022-09-22T05:29:16.847Z,99.5
2022-09-22T05:30:17.345Z,99.6
2022-09-22T05:31:16.990Z,99.7
2022-09-22T05:32:17.210Z,99.8
2022-09-22T05:33:16.667Z,99.8
2022-09-22T05:34:17.128Z,99.8
2022-09-22T05:35:16.564Z,99.8
2022-09-22T05:36:17.020Z,99.8
2022-09-22T05:37:16.440Z,99.9
2022-09-22T05:38:16.852Z,100.0
2022-09-22T05:39:17.295Z,99.9
2022-09-22T05:40:16.903Z,99.9
2022-09-22T05:41:17.392Z,99.9
2022-09-22T05:42:16.925Z,99.8
2022-09-22T05:43:17.371Z,99.8
2022-09-22T05:44:16.813Z,99.8
2022-09-22T05:45:17.311Z,99.7
2022-09-22T05:46:16.891Z,99.7
2022-09-22T05:47:17.385Z,99.6
2022-09-22T05:48:16.798Z,99.5
2022-09-22T05:49:17.244Z,99.4
2022-09-22T05:50:16.702Z,99.3
2022-09-22T05:51:17.417Z,99.2
2022-09-22T05:52:16.724Z,99.2
2022-09-22T05:53:17.159Z,99.2
2022-09-22T05:54:23.200Z,99.2
2022-09-22T05:55:16.762Z,99.1
2022-09-22T05:56:17.209Z,99.0
2022-09-22T05:57:16.681Z,98.9
2022-09-22T05:58:17.146Z,98.8
2022-09-22T05:59:16.607Z,98.8
2022-09-22T06:00:17.067Z,98.7
2022-09-22T06:01:16.673Z,98.6
2022-09-22T06:02:26.719Z,98.5
2022-09-22T06:03:17.233Z,98.3
2022-09-22T06:04:16.675Z,98.4
2022-09-22T06:05:19.680Z,98.3
2022-09-22T06:06:17.143Z,98.3
2022-09-22T06:07:16.598Z,98.3
2022-09-22T06:08:17.065Z,98.3
2022-09-22T06:09:16.528Z,98.3
2022-09-22T06:10:16.991Z,98.2
2022-09-22T06:11:16.477Z,98.2
2022-09-22T06:12:16.849Z,98.2
2022-09-22T06:13:17.296Z,98.2
2022-09-22T06:14:16.746Z,98.0
2022-09-22T06:15:17.180Z,98.0
2022-09-22T06:16:16.682Z,98.0
2022-09-22T06:17:17.148Z,97.8
2022-09-22T06:18:24.346Z,97.9
2022-09-22T06:19:17.106Z,98.0
2022-09-22T06:20:16.576Z,98.0
2022-09-22T06:21:17.009Z,98.2
2022-09-22T06:22:16.824Z,98.0
2022-09-22T06:23:17.284Z,97.7
2022-09-22T06:24:16.781Z,97.5
2022-09-22T06:25:17.301Z,97.5
2022-09-22T06:26:16.764Z,97.4
2022-09-22T06:27:17.241Z,97.3
2022-09-22T06:28:16.771Z,97.0
2022-09-22T06:29:17.291Z,96.8
2022-09-22T06:30:16.766Z,96.7
2022-09-22T06:31:17.318Z,96.6
2022-09-22T06:32:16.754Z,96.5
2022-09-22T06:33:17.220Z,96.4
2022-09-22T06:34:16.648Z,96.2
2022-09-22T06:35:17.066Z,96.1
2022-09-22T06:36:16.486Z,96.0
2022-09-22T06:37:16.958Z,96.0
2022-09-22T06:38:17.429Z,95.8
2022-09-22T06:39:16.884Z,95.8
2022-09-22T06:40:17.956Z,95.7
2022-09-22T06:41:16.483Z,95.7
2022-09-22T06:42:16.835Z,95.7
2022-09-22T06:43:17.282Z,95.7
2022-09-22T06:44:16.710Z,95.5
2022-09-22T06:45:17.141Z,95.5
2022-09-22T06:46:16.663Z,95.5
2022-09-22T06:47:17.133Z,95.5
2022-09-22T06:48:16.552Z,95.3
2022-09-22T06:49:17.005Z,95.3
2022-09-22T06:50:16.688Z,95.2
2022-09-22T06:51:17.136Z,95.0
2022-09-22T06:52:16.758Z,94.9
2022-09-22T06:53:17.211Z,94.8
2022-09-22T06:54:16.659Z,94.7
2022-09-22T06:55:17.109Z,94.7
2022-09-22T06:56:16.558Z,94.6
2022-09-22T06:57:17.047Z,94.5
2022-09-22T06:58:16.528Z,94.6
2022-09-22T06:59:16.961Z,94.4
2022-09-22T07:00:17.408Z,94.2
2022-09-22T07:01:17.059Z,94.2
2022-09-22T07:02:17.256Z,94.1
2022-09-22T07:03:16.743Z,94.3
2022-09-22T07:04:17.169Z,94.3
2022-09-22T07:05:16.598Z,94.2
2022-09-22T07:06:20.599Z,94.2
2022-09-22T07:07:17.140Z,94.0
2022-09-22T07:08:16.611Z,94.0
2022-09-22T07:09:17.058Z,94.0
2022-09-22T07:10:16.531Z,93.7
2022-09-22T07:11:16.978Z,93.2
2022-09-22T07:12:17.361Z,93.2
2022-09-22T07:13:16.810Z,93.2
2022-09-22T07:14:17.252Z,93.1
2022-09-22T07:15:16.685Z,93.0
2022-09-22T07:16:17.292Z,93.0
2022-09-22T07:17:16.764Z,93.0
2022-09-22T07:18:17.196Z,92.7
2022-09-22T07:19:16.627Z,92.5
2022-09-22T07:20:17.066Z,92.2
2022-09-22T07:21:16.522Z,92.0
2022-09-22T07:22:16.606Z,92.0
2022-09-22T07:23:17.067Z,91.8
2022-09-22T07:24:16.508Z,91.7
2022-09-22T07:25:16.956Z,91.7
2022-09-22T07:26:17.472Z,91.1
2022-09-22T07:27:16.928Z,90.7
2022-09-22T07:28:17.351Z,90.6
2022-09-22T07:29:16.828Z,90.4
2022-09-22T07:30:17.296Z,89.8
2022-09-22T07:31:16.818Z,89.1
2022-09-22T07:32:17.245Z,88.8
2022-09-22T07:33:16.667Z,88.2
2022-09-22T07:34:17.125Z,87.8
2022-09-22T07:35:16.545Z,87.8
2022-09-22T07:36:16.999Z,86.9
2022-09-22T07:37:16.450Z,86.4
2022-09-22T07:38:17.340Z,87.0
2022-09-22T07:39:16.811Z,87.9
2022-09-22T07:40:17.372Z,88.1
2022-09-22T07:41:16.919Z,87.8
2022-09-22T07:42:16.451Z,86.4
2022-09-22T07:43:16.881Z,85.7
2022-09-22T07:44:17.309Z,86.1
2022-09-22T07:45:16.736Z,85.4
2022-09-22T07:46:17.278Z,84.4
2022-09-22T07:47:16.743Z,84.7
2022-09-22T07:48:17.197Z,84.5
2022-09-22T07:49:16.613Z,83.8
2022-09-22T07:50:17.084Z,83.5
2022-09-22T07:51:17.159Z,83.3
2022-09-22T07:52:17.171Z,83.2
2022-09-22T07:53:16.643Z,82.2
2022-09-22T07:54:17.113Z,82.3
2022-09-22T07:55:16.577Z,82.1
2022-09-22T07:56:17.013Z,82.0
2022-09-22T07:57:16.514Z,81.8
2022-09-22T07:58:17.666Z,81.4
2022-09-22T07:59:17.084Z,80.9
2022-09-22T08:00:16.505Z,80.2
2022-09-22T08:01:17.116Z,79.8
2022-09-22T08:02:16.711Z,80.0
2022-09-22T08:03:17.186Z,79.5
2022-09-22T08:04:16.718Z,79.3
2022-09-22T08:05:17.217Z,78.8
2022-09-22T08:06:18.312Z,79.0
2022-09-22T08:07:17.023Z,79.0
2022-09-22T08:08:16.477Z,80.0
2022-09-22T08:09:16.927Z,81.7
2022-09-22T08:10:17.417Z,82.0
2022-09-22T08:11:16.875Z,80.6
2022-09-22T08:12:16.840Z,79.2
2022-09-22T08:13:17.308Z,77.8
2022-09-22T08:14:16.733Z,77.2
2022-09-22T08:15:17.156Z,76.6
2022-09-22T08:16:16.811Z,75.5
2022-09-22T08:17:17.339Z,75.2
2022-09-22T08:18:16.804Z,75.5
2022-09-22T08:19:17.237Z,75.4
2022-09-22T08:20:16.868Z,75.4
2022-09-22T08:21:17.342Z,74.8
2022-09-22T08:22:16.618Z,75.0
2022-09-22T08:23:17.072Z,74.7
2022-09-22T08:24:16.554Z,74.9
2022-09-22T08:25:17.003Z,74.6
2022-09-22T08:26:16.506Z,74.7
2022-09-22T08:27:16.951Z,75.2
2022-09-22T08:28:17.375Z,75.1
2022-09-22T08:29:16.791Z,75.2
2022-09-22T08:30:17.274Z,76.0
2022-09-22T08:31:16.940Z,76.2
2022-09-22T08:32:16.920Z,75.5
2022-09-22T08:33:17.369Z,75.6
2022-09-22T08:34:17.126Z,75.2
2022-09-22T08:35:16.583Z,76.0
2022-09-22T08:36:17.042Z,75.8
2022-09-22T08:37:16.514Z,76.8
2022-09-22T08:38:16.975Z,77.7
2022-09-22T08:39:16.476Z,77.0
2022-09-22T08:40:17.166Z,76.2
2022-09-22T08:41:16.666Z,76.2
2022-09-22T08:42:16.777Z,77.2
2022-09-22T08:43:17.207Z,77.8
2022-09-22T08:44:16.624Z,78.7
2022-09-22T08:45:17.055Z,78.7
2022-09-22T08:46:16.583Z,76.9
2022-09-22T08:47:17.045Z,75.7
2022-09-22T08:48:16.464Z,75.2
2022-09-22T08:49:16.909Z,73.9
2022-09-22T08:50:17.397Z,73.1
2022-09-22T08:51:16.877Z,73.3
2022-09-22T08:52:16.991Z,72.2
2022-09-22T08:53:16.449Z,71.6
2022-09-22T08:54:16.907Z,72.1
2022-09-22T08:55:17.366Z,72.1
2022-09-22T08:56:16.808Z,71.2
2022-09-22T08:57:17.245Z,71.2
2022-09-22T08:58:16.675Z,71.2
2022-09-22T08:59:17.105Z,72.3
2022-09-22T09:00:16.669Z,71.8
2022-09-22T09:01:17.250Z,72.0
2022-09-22T09:02:17.353Z,73.3
2022-09-22T09:03:16.965Z,74.2
2022-09-22T09:04:16.470Z,74.3
2022-09-22T09:05:16.935Z,74.8
2022-09-22T09:06:17.409Z,74.3
2022-09-22T09:07:16.853Z,73.7
2022-09-22T09:08:17.321Z,72.8
2022-09-22T09:09:16.801Z,71.5
2022-09-22T09:10:17.420Z,70.7
2022-09-22T09:11:17.081Z,71.1
2022-09-22T09:12:16.417Z,71.1
2022-09-22T09:13:16.846Z,70.7
2022-09-22T09:14:17.274Z,69.5
2022-09-22T09:15:16.721Z,68.5
2022-09-22T09:16:17.265Z,68.3
2022-09-22T09:17:16.726Z,67.6
2022-09-22T09:18:17.239Z,68.2
2022-09-22T09:19:16.696Z,70.3
2022-09-22T09:20:17.306Z,70.6
2022-09-22T09:21:16.844Z,70.0
2022-09-22T09:22:16.890Z,69.0
2022-09-22T09:23:17.954Z,68.7
2022-09-22T09:25:27.710Z,67.5
2022-09-22T09:26:16.569Z,67.2
2022-09-22T09:27:16.990Z,68.2
2022-09-22T09:28:16.445Z,67.5
2022-09-22T09:29:16.865Z,68.6
2022-09-22T09:30:17.420Z,69.2
2022-09-22T09:31:17.047Z,69.5
2022-09-22T09:32:16.905Z,67.8
2022-09-22T09:33:17.395Z,66.8
2022-09-22T09:34:16.875Z,66.3
2022-09-22T09:35:17.338Z,67.6
2022-09-22T09:37:17.323Z,66.0
2022-09-22T09:38:16.763Z,66.1
2022-09-22T09:39:17.199Z,66.0
2022-09-22T09:40:16.965Z,66.0
2022-09-22T09:41:16.506Z,66.7
2022-09-22T09:42:16.819Z,67.5
2022-09-22T09:43:17.240Z,67.7
2022-09-22T09:44:20.664Z,67.2
2022-09-22T09:45:17.108Z,66.8
2022-09-22T09:46:16.629Z,67.5
2022-09-22T09:47:17.076Z,66.3
2022-09-22T09:48:16.512Z,66.7
2022-09-22T09:49:16.963Z,66.8
2022-09-22T09:50:17.443Z,65.2
2022-09-22T09:51:16.941Z,66.3
2022-09-22T09:52:17.091Z,65.8
2022-09-22T09:53:16.554Z,67.3
2022-09-22T09:54:17.963Z,66.9
2022-09-22T09:55:16.416Z,67.0
2022-09-22T09:56:16.831Z,66.8
2022-09-22T09:57:17.292Z,66.5
2022-09-22T09:58:16.717Z,66.7
2022-09-22T09:59:17.140Z,66.8
2022-09-22T10:00:16.567Z,66.2
2022-09-22T10:01:17.124Z,65.8
2022-09-22T10:02:16.561Z,65.5
2022-09-22T10:03:17.144Z,66.5
2022-09-22T10:04:16.609Z,67.5
2022-09-22T10:05:17.078Z,67.8
2022-09-22T10:06:16.575Z,68.7
2022-09-22T10:07:17.061Z,68.7
2022-09-22T10:08:16.540Z,67.0
2022-09-22T10:09:17.015Z,64.9
2022-09-22T10:10:16.460Z,65.0
2022-09-22T10:11:16.919Z,66.5
2022-09-22T10:12:16.747Z,67.5
2022-09-22T10:13:18.392Z,66.4
2022-09-22T10:14:16.830Z,66.2
2022-09-22T10:15:17.302Z,64.5
2022-09-22T10:16:16.867Z,63.7
2022-09-22T10:17:17.391Z,63.5
2022-09-22T10:18:16.858Z,63.6
2022-09-22T10:19:17.319Z,63.8
2022-09-22T10:20:16.793Z,63.7
2022-09-22T10:21:17.238Z,63.2
2022-09-22T10:22:16.620Z,63.1
2022-09-22T10:23:17.111Z,62.2
2022-09-22T10:24:16.543Z,64.0
2022-09-22T10:25:17.000Z,63.9
2022-09-22T10:26:16.411Z,65.1
2022-09-22T10:27:17.108Z,63.4
2022-09-22T10:28:16.551Z,63.3
2022-09-22T10:29:16.977Z,63.0
2022-09-22T10:30:16.453Z,64.0
2022-09-22T10:31:17.034Z,63.6
2022-09-22T10:32:16.524Z,63.0
2022-09-22T10:33:17.004Z,63.1
2022-09-22T10:34:16.527Z,63.0
2022-09-22T10:35:17.009Z,62.5
2022-09-22T10:36:16.472Z,61.8
2022-09-22T10:37:16.937Z,61.6
2022-09-22T10:38:17.395Z,61.6
2022-09-22T10:39:16.824Z,60.3
2022-09-22T10:40:17.398Z,60.3
2022-09-22T10:41:16.834Z,60.2
2022-09-22T10:42:16.691Z,61.2
2022-09-22T10:43:17.159Z,60.5
2022-09-22T10:44:38.398Z,60.8
2022-09-22T10:45:16.692Z,60.9
2022-09-22T10:46:17.394Z,62.0
2022-09-22T10:47:16.908Z,63.7
2022-09-22T10:49:16.821Z,64.0
2022-09-22T10:50:17.351Z,63.7
2022-09-22T10:51:16.808Z,63.6
2022-09-22T10:52:16.466Z,62.8
2022-09-22T10:53:16.931Z,62.2
2022-09-22T10:54:17.378Z,62.2
2022-09-22T10:55:16.822Z,62.3
2022-09-22T10:56:17.263Z,61.1
2022-09-22T10:57:16.722Z,61.2
2022-09-22T10:58:17.135Z,61.0
2022-09-22T10:59:16.579Z,60.8
2022-09-22T11:00:17.075Z,61.0
2022-09-22T11:01:16.620Z,61.2
2022-09-22T11:02:16.444Z,61.5
2022-09-22T11:03:16.920Z,61.5
2022-09-22T11:04:17.520Z,62.5
2022-09-22T11:05:17.044Z,63.2
2022-09-22T11:06:16.492Z,63.2
2022-09-22T11:07:16.942Z,62.2
2022-09-22T11:08:17.381Z,62.8
2022-09-22T11:09:16.812Z,62.9
2022-09-22T11:10:17.272Z,62.5
2022-09-22T11:11:16.732Z,61.9
2022-09-22T11:12:16.919Z,61.9
2022-09-22T11:13:17.333Z,62.0
2022-09-22T11:14:16.776Z,61.6
2022-09-22T11:15:17.224Z,61.8
2022-09-22T11:16:16.689Z,63.2
2022-09-22T11:17:17.137Z,63.3
2022-09-22T11:18:16.611Z,61.9
2022-09-22T11:19:17.078Z,62.0
2022-09-22T11:20:16.569Z,62.4
2022-09-22T11:21:17.060Z,62.9
2022-09-22T11:22:17.326Z,63.6
2022-09-22T11:23:16.752Z,64.8
2022-09-22T11:24:17.165Z,64.4
2022-09-22T11:25:16.601Z,63.9
2022-09-22T11:26:17.061Z,63.6
2022-09-22T11:27:16.480Z,65.2
2022-09-22T11:28:16.921Z,67.3
2022-09-22T11:29:17.356Z,67.1
2022-09-22T11:30:17.048Z,66.7
2022-09-22T11:31:16.552Z,66.5
2022-09-22T11:32:17.157Z,67.0
2022-09-22T11:33:16.627Z,66.8
2022-09-22T11:34:17.076Z,65.4
2022-09-22T11:35:16.535Z,65.0
2022-09-22T11:36:17.010Z,65.0
2022-09-22T11:37:16.503Z,64.9
2022-09-22T11:38:16.931Z,64.7
2022-09-22T11:39:17.373Z,64.5
2022-09-22T11:40:16.900Z,64.8
2022-09-22T11:41:17.364Z,65.8
2022-09-22T11:42:16.751Z,66.1
2022-09-22T11:43:17.207Z,66.7
2022-09-22T11:44:16.630Z,66.7
2022-09-22T11:45:17.132Z,64.7
2022-09-22T11:46:16.763Z,65.3
2022-09-22T11:47:17.276Z,65.3
2022-09-22T11:48:16.737Z,65.8
2022-09-22T11:49:17.218Z,63.1
2022-09-22T11:50:16.696Z,62.2
2022-09-22T11:51:17.179Z,59.6
2022-09-22T11:52:17.833Z,60.3
2022-09-22T11:53:17.264Z,60.8
2022-09-22T11:54:16.708Z,58.9
2022-09-22T11:55:17.136Z,59.5
2022-09-22T11:56:16.602Z,60.5
2022-09-22T11:57:17.035Z,60.3
2022-09-22T11:58:16.454Z,61.0
2022-09-22T11:59:16.872Z,61.2
2022-09-22T12:00:17.390Z,61.1
2022-09-22T12:01:16.879Z,61.0
2022-09-22T12:02:17.174Z,61.5
2022-09-22T12:03:17.078Z,60.5
2022-09-22T12:04:16.631Z,61.4
2022-09-22T12:05:17.106Z,60.2
2022-09-22T12:06:16.570Z,61.0
2022-09-22T12:07:17.029Z,59.8
2022-09-22T12:08:16.507Z,60.2
2022-09-22T12:09:16.941Z,59.5
2022-09-22T12:10:17.417Z,60.0
2022-09-22T12:11:16.838Z,58.8
2022-09-22T12:12:17.325Z,59.8
2022-09-22T12:13:16.739Z,59.3
2022-09-22T12:14:17.155Z,60.8
2022-09-22T12:15:16.634Z,60.8
2022-09-22T12:16:17.088Z,60.0
2022-09-22T12:17:21.469Z,59.2
2022-09-22T12:18:17.056Z,59.6
2022-09-22T12:19:16.506Z,59.6
2022-09-22T12:20:16.982Z,60.8
2022-09-22T12:21:16.431Z,60.5
2022-09-22T12:22:16.965Z,60.3
2022-09-22T12:23:17.397Z,60.2
2022-09-22T12:24:16.843Z,60.0
2022-09-22T12:25:45.088Z,60.5
2022-09-22T12:26:16.792Z,60.7
2022-09-22T12:27:17.232Z,61.0
2022-09-22T12:28:16.701Z,60.0
2022-09-22T12:29:17.121Z,61.0
2022-09-22T12:30:16.570Z,60.2
2022-09-22T12:31:17.303Z,59.9
2022-09-22T12:32:17.409Z,60.6
2022-09-22T12:33:16.859Z,59.9
2022-09-22T12:34:17.342Z,60.5
2022-09-22T12:35:16.806Z,59.8
2022-09-22T12:36:17.285Z,59.8
2022-09-22T12:37:16.715Z,59.5
2022-09-22T12:38:17.134Z,60.5
2022-09-22T12:39:16.557Z,59.3
2022-09-22T12:40:17.163Z,59.1
2022-09-22T12:41:16.658Z,61.0
2022-09-22T12:42:17.368Z,62.3
2022-09-22T12:43:16.797Z,61.4
2022-09-22T12:44:17.251Z,61.5
2022-09-22T12:45:16.727Z,61.8
2022-09-22T12:46:17.246Z,61.9
2022-09-22T12:47:16.742Z,62.0
2022-09-22T12:48:17.203Z,60.9
2022-09-22T12:49:16.713Z,61.2
2022-09-22T12:50:17.163Z,62.6
2022-09-22T12:51:16.626Z,61.9
2022-09-22T12:52:17.261Z,62.0
2022-09-22T12:53:16.713Z,62.8
2022-09-22T12:54:17.131Z,62.7
2022-09-22T12:55:16.569Z,62.0
2022-09-22T12:56:16.999Z,61.7
2022-09-22T12:57:16.428Z,61.6
2022-09-22T12:58:16.845Z,61.5
2022-09-22T12:59:17.295Z,63.3
2022-09-22T13:00:16.886Z,62.1
2022-09-22T13:01:17.624Z,61.8
2022-09-22T13:02:16.931Z,62.0
2022-09-22T13:03:16.433Z,62.2
2022-09-22T13:04:16.911Z,62.2
2022-09-22T13:05:17.402Z,61.5
2022-09-22T13:06:16.866Z,62.3
2022-09-22T13:07:17.281Z,62.6
2022-09-22T13:08:16.734Z,62.3
2022-09-22T13:09:17.154Z,61.5
2022-09-22T13:10:16.725Z,61.4
2022-09-22T13:11:17.148Z,59.0
2022-09-22T13:12:16.671Z,57.6
2022-09-22T13:13:17.096Z,57.4
2022-09-22T13:14:18.576Z,58.8
2022-09-22T13:15:17.051Z,57.7
2022-09-22T13:16:16.658Z,59.0
2022-09-22T13:17:17.142Z,59.8
2022-09-22T13:18:16.623Z,59.6
2022-09-22T13:19:17.086Z,58.8
2022-09-22T13:20:16.763Z,57.6
2022-09-22T13:21:17.213Z,57.7